sensor_id;sensor_type;location;lat;lon;timestamp;pressure;altitude;pressure_sealevel;temperature;humidity
42771;BME280;28426;42.872;25.314;2023-04-06T00:01:53;96654.69;;;-0.11;90.91
42771;BME280;28426;42.872;25.314;2023-04-06T00:04:27;96650.88;;;0.03;89.70
42771;BME280;28426;42.872;25.314;2023-04-06T00:06:58;96656.44;;;0.10;87.49
42771;BME280;28426;42.872;25.314;2023-04-06T00:09:28;96650.63;;;0.06;86.38
42771;BME280;28426;42.872;25.314;2023-04-06T00:11:59;96648.06;;;-0.05;87.87
42771;BME280;28426;42.872;25.314;2023-04-06T00:14:31;96645.53;;;-0.17;88.62
42771;BME280;28426;42.872;25.314;2023-04-06T00:17:02;96640.94;;;-0.24;89.20
42771;BME280;28426;42.872;25.314;2023-04-06T00:19:36;96629.97;;;-0.30;89.73
42771;BME280;28426;42.872;25.314;2023-04-06T00:22:08;96629.41;;;-0.33;90.19
42771;BME280;28426;42.872;25.314;2023-04-06T00:24:39;96634.91;;;-0.36;90.79
42771;BME280;28426;42.872;25.314;2023-04-06T00:27:10;96628.28;;;-0.41;91.88
42771;BME280;28426;42.872;25.314;2023-04-06T00:29:40;96633.66;;;-0.42;92.59
42771;BME280;28426;42.872;25.314;2023-04-06T00:32:12;96631.34;;;-0.35;94.92
42771;BME280;28426;42.872;25.314;2023-04-06T00:34:46;96620.91;;;-0.25;94.13
42771;BME280;28426;42.872;25.314;2023-04-06T00:37:17;96605.44;;;-0.29;91.00
42771;BME280;28426;42.872;25.314;2023-04-06T00:39:48;96613.31;;;-0.29;90.09
42771;BME280;28426;42.872;25.314;2023-04-06T00:42:21;96606.22;;;-0.38;90.58
42771;BME280;28426;42.872;25.314;2023-04-06T00:44:57;96611.63;;;-0.51;91.04
42771;BME280;28426;42.872;25.314;2023-04-06T00:47:30;96610.34;;;-0.57;92.56
42771;BME280;28426;42.872;25.314;2023-04-06T00:50:05;96612.66;;;-0.63;93.05
42771;BME280;28426;42.872;25.314;2023-04-06T00:52:37;96613.13;;;-0.58;97.32
42771;BME280;28426;42.872;25.314;2023-04-06T00:55:09;96610.56;;;-0.48;96.26
42771;BME280;28426;42.872;25.314;2023-04-06T00:57:42;96591.31;;;-0.59;92.93
42771;BME280;28426;42.872;25.314;2023-04-06T01:00:14;96609.28;;;-0.54;91.56
42771;BME280;28426;42.872;25.314;2023-04-06T01:02:48;96598.84;;;-0.66;91.66
42771;BME280;28426;42.872;25.314;2023-04-06T01:05:25;96601.53;;;-0.77;92.30
42771;BME280;28426;42.872;25.314;2023-04-06T01:07:58;96604.78;;;-0.85;93.19
42771;BME280;28426;42.872;25.314;2023-04-06T01:10:29;96600.88;;;-0.90;93.71
42771;BME280;28426;42.872;25.314;2023-04-06T01:13:08;96598.88;;;-0.98;93.95
42771;BME280;28426;42.872;25.314;2023-04-06T01:15:54;96596.88;;;-1.06;94.39
42771;BME280;28426;42.872;25.314;2023-04-06T01:18:43;96587.81;;;-1.02;98.72
42771;BME280;28426;42.872;25.314;2023-04-06T01:21:24;96583.28;;;-1.00;97.80
42771;BME280;28426;42.872;25.314;2023-04-06T01:24:30;96581.50;;;-0.99;94.19
42771;BME280;28426;42.872;25.314;2023-04-06T01:27:25;96584.63;;;-1.06;92.81
42771;BME280;28426;42.872;25.314;2023-04-06T01:30:27;96553.09;;;-1.37;93.72
42771;BME280;28426;42.872;25.314;2023-04-06T01:33:01;96580.84;;;-1.13;97.43
42771;BME280;28426;42.872;25.314;2023-04-06T01:35:55;96586.28;;;-1.04;97.50
42771;BME280;28426;42.872;25.314;2023-04-06T01:38:26;96543.53;;;-1.26;94.29
42771;BME280;28426;42.872;25.314;2023-04-06T01:41:00;96566.09;;;-1.14;92.61
42771;BME280;28426;42.872;25.314;2023-04-06T01:43:44;96561.22;;;-1.19;93.89
42771;BME280;28426;42.872;25.314;2023-04-06T01:46:15;96559.81;;;-1.23;93.92
42771;BME280;28426;42.872;25.314;2023-04-06T01:48:46;96567.66;;;-1.23;94.55
42771;BME280;28426;42.872;25.314;2023-04-06T01:51:24;96567.44;;;-1.31;94.79
42771;BME280;28426;42.872;25.314;2023-04-06T01:53:58;96566.06;;;-1.35;94.67
42771;BME280;28426;42.872;25.314;2023-04-06T01:56:55;96556.06;;;-1.41;95.58
42771;BME280;28426;42.872;25.314;2023-04-06T01:59:39;96555.31;;;-1.32;98.22
42771;BME280;28426;42.872;25.314;2023-04-06T02:02:24;96567.53;;;-1.21;97.02
42771;BME280;28426;42.872;25.314;2023-04-06T02:05:03;96559.81;;;-1.23;94.34
42771;BME280;28426;42.872;25.314;2023-04-06T02:07:38;96554.34;;;-1.31;94.00
42771;BME280;28426;42.872;25.314;2023-04-06T02:10:13;96551.16;;;-1.35;94.18
42771;BME280;28426;42.872;25.314;2023-04-06T02:12:47;96546.16;;;-1.38;95.18
42771;BME280;28426;42.872;25.314;2023-04-06T02:15:24;96545.59;;;-1.41;96.05
42771;BME280;28426;42.872;25.314;2023-04-06T02:17:55;96545.13;;;-1.47;95.61
42771;BME280;28426;42.872;25.314;2023-04-06T02:20:26;96526.13;;;-1.60;95.58
42771;BME280;28426;42.872;25.314;2023-04-06T02:22:58;96531.03;;;-1.55;95.86
42771;BME280;28426;42.872;25.314;2023-04-06T02:25:30;96529.22;;;-1.55;95.95
42771;BME280;28426;42.872;25.314;2023-04-06T02:28:04;96538.03;;;-1.56;96.02
42771;BME280;28426;42.872;25.314;2023-04-06T02:30:35;96533.75;;;-1.57;95.96
42771;BME280;28426;42.872;25.314;2023-04-06T02:33:06;96541.13;;;-1.62;95.55
42771;BME280;28426;42.872;25.314;2023-04-06T02:35:44;96529.44;;;-1.58;97.75
42771;BME280;28426;42.872;25.314;2023-04-06T02:38:16;96537.63;;;-1.51;97.85
42771;BME280;28426;42.872;25.314;2023-04-06T02:40:47;96539.44;;;-1.52;96.06
42771;BME280;28426;42.872;25.314;2023-04-06T02:43:24;96539.91;;;-1.58;95.18
42771;BME280;28426;42.872;25.314;2023-04-06T02:46:03;96543.50;;;-1.59;95.10
42771;BME280;28426;42.872;25.314;2023-04-06T02:48:37;96545.88;;;-1.67;96.38
42771;BME280;28426;42.872;25.314;2023-04-06T02:51:08;96540.31;;;-1.63;96.83
42771;BME280;28426;42.872;25.314;2023-04-06T02:53:43;96534.09;;;-1.62;96.74
42771;BME280;28426;42.872;25.314;2023-04-06T02:56:14;96540.91;;;-1.71;97.10
42771;BME280;28426;42.872;25.314;2023-04-06T02:58:52;96552.31;;;-1.60;97.49
42771;BME280;28426;42.872;25.314;2023-04-06T03:01:27;96551.00;;;-1.54;99.61
42771;BME280;28426;42.872;25.314;2023-04-06T03:04:02;96551.06;;;-1.45;99.70
42771;BME280;28426;42.872;25.314;2023-04-06T03:06:33;96542.50;;;-1.35;99.21
42771;BME280;28426;42.872;25.314;2023-04-06T03:09:14;96551.25;;;-1.25;98.83
42771;BME280;28426;42.872;25.314;2023-04-06T03:11:45;96550.75;;;-1.19;98.82
42771;BME280;28426;42.872;25.314;2023-04-06T03:14:19;96567.13;;;-1.05;98.28
42771;BME280;28426;42.872;25.314;2023-04-06T03:16:51;96549.84;;;-0.96;98.06
42771;BME280;28426;42.872;25.314;2023-04-06T03:19:23;96549.19;;;-0.88;97.87
42771;BME280;28426;42.872;25.314;2023-04-06T03:21:58;96552.13;;;-0.82;97.26
42771;BME280;28426;42.872;25.314;2023-04-06T03:24:29;96547.22;;;-0.75;96.95
42771;BME280;28426;42.872;25.314;2023-04-06T03:27:00;96544.97;;;-0.80;97.66
42771;BME280;28426;42.872;25.314;2023-04-06T03:29:34;96548.63;;;-0.71;96.95
42771;BME280;28426;42.872;25.314;2023-04-06T03:32:06;96536.34;;;-0.92;95.15
42771;BME280;28426;42.872;25.314;2023-04-06T03:34:41;96555.97;;;-0.86;93.73
42771;BME280;28426;42.872;25.314;2023-04-06T03:37:12;96559.59;;;-0.98;92.26
42771;BME280;28426;42.872;25.314;2023-04-06T03:39:48;96560.47;;;-1.09;92.19
42771;BME280;28426;42.872;25.314;2023-04-06T03:42:22;96563.97;;;-1.20;93.63
42771;BME280;28426;42.872;25.314;2023-04-06T03:45:04;96560.47;;;-1.09;97.03
42771;BME280;28426;42.872;25.314;2023-04-06T03:47:36;96558.19;;;-1.02;97.55
42771;BME280;28426;42.872;25.314;2023-04-06T03:50:09;96556.09;;;-0.87;98.29
42771;BME280;28426;42.872;25.314;2023-04-06T03:52:40;96556.81;;;-0.85;94.67
42771;BME280;28426;42.872;25.314;2023-04-06T03:55:11;96555.41;;;-0.89;92.68
42771;BME280;28426;42.872;25.314;2023-04-06T03:57:43;96552.56;;;-0.98;91.91
42771;BME280;28426;42.872;25.314;2023-04-06T04:00:16;96546.88;;;-1.03;94.63
42771;BME280;28426;42.872;25.314;2023-04-06T04:02:48;96557.56;;;-0.95;96.12
42771;BME280;28426;42.872;25.314;2023-04-06T04:05:20;96564.47;;;-0.94;94.73
42771;BME280;28426;42.872;25.314;2023-04-06T04:07:53;96557.56;;;-0.95;93.33
42771;BME280;28426;42.872;25.314;2023-04-06T04:10:26;96556.66;;;-1.05;91.55
42771;BME280;28426;42.872;25.314;2023-04-06T04:12:57;96550.25;;;-1.12;92.06
42771;BME280;28426;42.872;25.314;2023-04-06T04:15:31;96542.84;;;-1.07;96.62
42771;BME280;28426;42.872;25.314;2023-04-06T04:18:03;96546.25;;;-0.95;96.43
42771;BME280;28426;42.872;25.314;2023-04-06T04:20:34;96551.16;;;-0.81;97.04
42771;BME280;28426;42.872;25.314;2023-04-06T04:23:05;96555.53;;;-0.70;95.06
42771;BME280;28426;42.872;25.314;2023-04-06T04:25:36;96551.44;;;-0.62;93.97
42771;BME280;28426;42.872;25.314;2023-04-06T04:28:07;96547.00;;;-0.62;92.85
42771;BME280;28426;42.872;25.314;2023-04-06T04:30:43;96547.78;;;-0.71;91.18
42771;BME280;28426;42.872;25.314;2023-04-06T04:33:15;96544.03;;;-0.57;95.00
42771;BME280;28426;42.872;25.314;2023-04-06T04:35:46;96553.72;;;-0.48;94.94
42771;BME280;28426;42.872;25.314;2023-04-06T04:38:20;96529.56;;;-0.51;94.74
42771;BME280;28426;42.872;25.314;2023-04-06T04:40:54;96549.94;;;-0.34;94.48
42771;BME280;28426;42.872;25.314;2023-04-06T04:43:25;96550.94;;;-0.25;94.00
42771;BME280;28426;42.872;25.314;2023-04-06T04:46:04;96546.44;;;-0.13;93.94
42771;BME280;28426;42.872;25.314;2023-04-06T04:48:41;96549.00;;;-0.02;93.79
42771;BME280;28426;42.872;25.314;2023-04-06T04:51:12;96506.81;;;-0.20;93.38
42771;BME280;28426;42.872;25.314;2023-04-06T04:54:09;96535.78;;;0.20;93.16
42771;BME280;28426;42.872;25.314;2023-04-06T04:56:42;96542.44;;;0.34;93.15
42771;BME280;28426;42.872;25.314;2023-04-06T04:59:26;96546.50;;;0.48;92.95
42771;BME280;28426;42.872;25.314;2023-04-06T05:02:07;96543.75;;;0.59;92.35
42771;BME280;28426;42.872;25.314;2023-04-06T05:04:48;96544.72;;;0.68;91.52
42771;BME280;28426;42.872;25.314;2023-04-06T05:07:23;96547.50;;;0.76;90.79
42771;BME280;28426;42.872;25.314;2023-04-06T05:09:57;96550.41;;;0.83;90.51
42771;BME280;28426;42.872;25.314;2023-04-06T05:12:35;96548.19;;;0.88;90.59
42771;BME280;28426;42.872;25.314;2023-04-06T05:15:09;96536.19;;;0.96;90.22
42771;BME280;28426;42.872;25.314;2023-04-06T05:17:44;96546.41;;;1.09;89.92
42771;BME280;28426;42.872;25.314;2023-04-06T05:20:20;96547.50;;;1.16;89.72
42771;BME280;28426;42.872;25.314;2023-04-06T05:22:53;96542.94;;;1.28;89.67
42771;BME280;28426;42.872;25.314;2023-04-06T05:25:24;96545.56;;;1.38;88.98
42771;BME280;28426;42.872;25.314;2023-04-06T05:28:01;96548.53;;;1.53;88.67
42771;BME280;28426;42.872;25.314;2023-04-06T05:30:35;96542.84;;;1.67;86.35
42771;BME280;28426;42.872;25.314;2023-04-06T05:33:11;96552.63;;;1.85;86.79
42771;BME280;28426;42.872;25.314;2023-04-06T05:35:56;96545.06;;;2.00;86.11
42771;BME280;28426;42.872;25.314;2023-04-06T05:38:29;96545.03;;;2.10;84.75
42771;BME280;28426;42.872;25.314;2023-04-06T05:41:09;96530.91;;;2.11;84.73
42771;BME280;28426;42.872;25.314;2023-04-06T05:43:41;96540.56;;;2.20;83.84
42771;BME280;28426;42.872;25.314;2023-04-06T05:46:13;96534.84;;;2.25;83.64
42771;BME280;28426;42.872;25.314;2023-04-06T05:48:47;96512.06;;;2.16;83.47
42771;BME280;28426;42.872;25.314;2023-04-06T05:51:20;96530.50;;;2.34;83.43
42771;BME280;28426;42.872;25.314;2023-04-06T05:53:51;96525.66;;;2.39;83.45
42771;BME280;28426;42.872;25.314;2023-04-06T05:56:22;96528.44;;;2.38;82.31
42771;BME280;28426;42.872;25.314;2023-04-06T05:58:54;96526.47;;;2.40;81.48
42771;BME280;28426;42.872;25.314;2023-04-06T06:01:28;96529.94;;;2.40;81.32
42771;BME280;28426;42.872;25.314;2023-04-06T06:04:03;96533.22;;;2.42;81.65
42771;BME280;28426;42.872;25.314;2023-04-06T06:06:37;96511.50;;;2.40;81.31
42771;BME280;28426;42.872;25.314;2023-04-06T06:09:15;96514.22;;;2.48;81.71
42771;BME280;28426;42.872;25.314;2023-04-06T06:11:57;96525.81;;;2.56;80.80
42771;BME280;28426;42.872;25.314;2023-04-06T06:14:30;96525.91;;;2.64;80.15
42771;BME280;28426;42.872;25.314;2023-04-06T06:17:01;96528.38;;;2.66;80.01
42771;BME280;28426;42.872;25.314;2023-04-06T06:19:35;96515.88;;;2.68;78.08
42771;BME280;28426;42.872;25.314;2023-04-06T06:22:08;96522.97;;;2.67;78.05
42771;BME280;28426;42.872;25.314;2023-04-06T06:24:42;96514.50;;;2.64;77.81
42771;BME280;28426;42.872;25.314;2023-04-06T06:27:15;96516.47;;;2.61;77.86
42771;BME280;28426;42.872;25.314;2023-04-06T06:29:47;96523.13;;;2.66;78.10
42771;BME280;28426;42.872;25.314;2023-04-06T06:32:18;96519.63;;;2.65;77.22
42771;BME280;28426;42.872;25.314;2023-04-06T06:34:54;96523.13;;;2.66;76.94
42771;BME280;28426;42.872;25.314;2023-04-06T06:37:29;96524.47;;;2.70;77.14
42771;BME280;28426;42.872;25.314;2023-04-06T06:40:02;96523.06;;;2.76;77.51
42771;BME280;28426;42.872;25.314;2023-04-06T06:42:35;96522.44;;;2.82;77.49
42771;BME280;28426;42.872;25.314;2023-04-06T06:45:30;96520.88;;;2.89;77.40
42771;BME280;28426;42.872;25.314;2023-04-06T06:48:01;96528.16;;;2.95;76.44
42771;BME280;28426;42.872;25.314;2023-04-06T06:50:35;96520.91;;;2.97;75.14
42771;BME280;28426;42.872;25.314;2023-04-06T06:53:06;96508.72;;;2.96;75.97
42771;BME280;28426;42.872;25.314;2023-04-06T06:55:38;96508.88;;;3.13;76.23
42771;BME280;28426;42.872;25.314;2023-04-06T06:58:12;96514.31;;;3.38;76.59
42771;BME280;28426;42.872;25.314;2023-04-06T07:00:43;96514.78;;;3.60;76.61
42771;BME280;28426;42.872;25.314;2023-04-06T07:03:14;96508.47;;;3.79;75.48
42771;BME280;28426;42.872;25.314;2023-04-06T07:05:49;96514.69;;;4.04;75.37
42771;BME280;28426;42.872;25.314;2023-04-06T07:08:24;96522.03;;;4.27;74.88
42771;BME280;28426;42.872;25.314;2023-04-06T07:10:55;96508.59;;;4.47;71.85
42771;BME280;28426;42.872;25.314;2023-04-06T07:13:27;96502.53;;;4.71;71.49
42771;BME280;28426;42.872;25.314;2023-04-06T07:16:00;96514.28;;;4.94;71.26
42771;BME280;28426;42.872;25.314;2023-04-06T07:18:31;96509.66;;;5.13;70.48
42771;BME280;28426;42.872;25.314;2023-04-06T07:21:07;96484.53;;;5.17;70.09
42771;BME280;28426;42.872;25.314;2023-04-06T07:23:38;96511.94;;;5.41;70.61
42771;BME280;28426;42.872;25.314;2023-04-06T07:26:09;96514.25;;;5.52;70.51
42771;BME280;28426;42.872;25.314;2023-04-06T07:28:41;96509.13;;;5.59;68.16
42771;BME280;28426;42.872;25.314;2023-04-06T07:31:12;96501.03;;;5.60;68.03
42771;BME280;28426;42.872;25.314;2023-04-06T07:33:44;96509.59;;;5.62;67.28
42771;BME280;28426;42.872;25.314;2023-04-06T07:36:18;96501.03;;;5.60;66.72
42771;BME280;28426;42.872;25.314;2023-04-06T07:38:49;96503.66;;;5.60;66.92
42771;BME280;28426;42.872;25.314;2023-04-06T07:41:20;96498.69;;;5.57;66.02
42771;BME280;28426;42.872;25.314;2023-04-06T07:43:52;96508.78;;;5.62;66.66
42771;BME280;28426;42.872;25.314;2023-04-06T07:46:24;96489.75;;;5.58;66.30
42771;BME280;28426;42.872;25.314;2023-04-06T07:48:56;96501.97;;;5.68;65.64
42771;BME280;28426;42.872;25.314;2023-04-06T07:51:33;96504.63;;;5.68;64.63
42771;BME280;28426;42.872;25.314;2023-04-06T07:54:06;96517.38;;;5.72;63.71
42771;BME280;28426;42.872;25.314;2023-04-06T07:56:37;96508.59;;;5.63;63.31
42771;BME280;28426;42.872;25.314;2023-04-06T07:59:08;96517.53;;;5.62;61.96
42771;BME280;28426;42.872;25.314;2023-04-06T08:01:41;96516.06;;;5.60;63.11
42771;BME280;28426;42.872;25.314;2023-04-06T08:04:12;96523.34;;;5.58;63.32
42771;BME280;28426;42.872;25.314;2023-04-06T08:06:46;96514.56;;;5.57;63.64
42771;BME280;28426;42.872;25.314;2023-04-06T08:09:17;96507.97;;;5.53;62.88
42771;BME280;28426;42.872;25.314;2023-04-06T08:11:48;96511.09;;;5.57;62.39
42771;BME280;28426;42.872;25.314;2023-04-06T08:14:19;96516.91;;;5.60;61.23
42771;BME280;28426;42.872;25.314;2023-04-06T08:16:51;96506.47;;;5.59;62.33
42771;BME280;28426;42.872;25.314;2023-04-06T08:19:22;96511.06;;;5.73;62.34
42771;BME280;28426;42.872;25.314;2023-04-06T08:21:56;96509.25;;;5.82;63.15
42771;BME280;28426;42.872;25.314;2023-04-06T08:24:27;96503.25;;;5.97;62.26
42771;BME280;28426;42.872;25.314;2023-04-06T08:27:00;96500.22;;;6.00;59.46
42771;BME280;28426;42.872;25.314;2023-04-06T08:29:31;96507.38;;;6.08;61.21
42771;BME280;28426;42.872;25.314;2023-04-06T08:32:02;96498.22;;;6.19;61.33
42771;BME280;28426;42.872;25.314;2023-04-06T08:34:34;96506.13;;;6.27;60.52
42771;BME280;28426;42.872;25.314;2023-04-06T08:37:07;96503.09;;;6.38;59.52
42771;BME280;28426;42.872;25.314;2023-04-06T08:39:38;96505.00;;;6.53;60.73
42771;BME280;28426;42.872;25.314;2023-04-06T08:42:12;96501.13;;;6.64;60.00
42771;BME280;28426;42.872;25.314;2023-04-06T08:44:47;96502.25;;;6.70;58.67
42771;BME280;28426;42.872;25.314;2023-04-06T08:47:20;96500.25;;;6.72;58.58
42771;BME280;28426;42.872;25.314;2023-04-06T08:49:52;96500.91;;;6.74;58.77
42771;BME280;28426;42.872;25.314;2023-04-06T08:52:27;96499.63;;;6.70;57.42
42771;BME280;28426;42.872;25.314;2023-04-06T08:54:58;96487.56;;;6.59;56.64
42771;BME280;28426;42.872;25.314;2023-04-06T08:57:31;96500.84;;;6.59;57.25
42771;BME280;28426;42.872;25.314;2023-04-06T09:00:03;96499.69;;;6.53;57.21
42771;BME280;28426;42.872;25.314;2023-04-06T09:02:38;96498.09;;;6.44;57.46
42771;BME280;28426;42.872;25.314;2023-04-06T09:05:11;96491.84;;;6.36;57.56
42771;BME280;28426;42.872;25.314;2023-04-06T09:07:45;96491.84;;;6.36;57.88
42771;BME280;28426;42.872;25.314;2023-04-06T09:10:16;96488.38;;;6.36;57.79
42771;BME280;28426;42.872;25.314;2023-04-06T09:12:49;96486.56;;;6.36;57.85
42771;BME280;28426;42.872;25.314;2023-04-06T09:15:22;96483.72;;;6.38;58.38
42771;BME280;28426;42.872;25.314;2023-04-06T09:17:53;96469.53;;;6.31;56.63
42771;BME280;28426;42.872;25.314;2023-04-06T09:20:25;96468.69;;;6.30;56.99
42771;BME280;28426;42.872;25.314;2023-04-06T09:22:59;96465.69;;;6.33;57.33
42771;BME280;28426;42.872;25.314;2023-04-06T09:25:30;96480.72;;;6.41;57.97
42771;BME280;28426;42.872;25.314;2023-04-06T09:28:03;96469.25;;;6.49;58.24
42771;BME280;28426;42.872;25.314;2023-04-06T09:30:35;96455.97;;;6.49;57.67
42771;BME280;28426;42.872;25.314;2023-04-06T09:33:07;96455.75;;;6.59;57.22
42771;BME280;28426;42.872;25.314;2023-04-06T09:35:38;96457.81;;;6.72;58.02
42771;BME280;28426;42.872;25.314;2023-04-06T09:38:13;96456.41;;;6.84;56.72
42771;BME280;28426;42.872;25.314;2023-04-06T09:40:50;96455.53;;;6.92;57.33
42771;BME280;28426;42.872;25.314;2023-04-06T09:43:28;96453.28;;;7.04;57.28
42771;BME280;28426;42.872;25.314;2023-04-06T09:46:00;96457.16;;;7.16;56.88
42771;BME280;28426;42.872;25.314;2023-04-06T09:48:34;96457.34;;;7.30;57.18
42771;BME280;28426;42.872;25.314;2023-04-06T09:51:07;96453.94;;;7.44;56.50
42771;BME280;28426;42.872;25.314;2023-04-06T09:53:44;96418.31;;;7.39;54.06
42771;BME280;28426;42.872;25.314;2023-04-06T09:56:23;96438.75;;;7.68;54.18
42771;BME280;28426;42.872;25.314;2023-04-06T09:59:01;96433.34;;;7.62;51.59
42771;BME280;28426;42.872;25.314;2023-04-06T10:01:33;96444.69;;;7.70;52.46
42771;BME280;28426;42.872;25.314;2023-04-06T10:04:17;96443.38;;;7.66;53.68
42771;BME280;28426;42.872;25.314;2023-04-06T10:06:50;96435.81;;;7.63;53.70
42771;BME280;28426;42.872;25.314;2023-04-06T10:09:28;96450.66;;;7.72;54.01
42771;BME280;28426;42.872;25.314;2023-04-06T10:12:04;96441.66;;;7.74;54.01
42771;BME280;28426;42.872;25.314;2023-04-06T10:14:36;96425.72;;;7.74;52.52
42771;BME280;28426;42.872;25.314;2023-04-06T10:17:08;96443.97;;;7.92;53.11
42771;BME280;28426;42.872;25.314;2023-04-06T10:19:46;96446.31;;;8.02;52.69
42771;BME280;28426;42.872;25.314;2023-04-06T10:22:26;96445.84;;;8.13;52.73
42771;BME280;28426;42.872;25.314;2023-04-06T10:25:00;96448.41;;;8.21;52.99
42771;BME280;28426;42.872;25.314;2023-04-06T10:27:32;96434.72;;;8.24;49.65
42771;BME280;28426;42.872;25.314;2023-04-06T10:30:06;96446.81;;;8.27;51.25
42771;BME280;28426;42.872;25.314;2023-04-06T10:32:38;96446.09;;;8.33;51.74
42771;BME280;28426;42.872;25.314;2023-04-06T10:35:16;96445.06;;;8.34;50.08
42771;BME280;28426;42.872;25.314;2023-04-06T10:37:49;96436.91;;;8.36;49.84
42771;BME280;28426;42.872;25.314;2023-04-06T10:40:27;96433.22;;;8.37;49.21
42771;BME280;28426;42.872;25.314;2023-04-06T10:43:08;96435.13;;;8.43;49.03
42771;BME280;28426;42.872;25.314;2023-04-06T10:45:40;96436.69;;;8.53;50.39
42771;BME280;28426;42.872;25.314;2023-04-06T10:48:15;96438.63;;;8.59;50.51
42771;BME280;28426;42.872;25.314;2023-04-06T10:50:48;96421.16;;;8.71;48.93
42771;BME280;28426;42.872;25.314;2023-04-06T10:53:23;96436.22;;;8.86;50.24
42771;BME280;28426;42.872;25.314;2023-04-06T10:55:57;96433.47;;;9.01;49.84
42771;BME280;28426;42.872;25.314;2023-04-06T10:58:29;96430.09;;;9.14;50.66
42771;BME280;28426;42.872;25.314;2023-04-06T11:01:00;96420.34;;;9.21;49.15
42771;BME280;28426;42.872;25.314;2023-04-06T11:03:32;96430.06;;;9.36;49.46
42771;BME280;28426;42.872;25.314;2023-04-06T11:06:18;96419.03;;;9.39;48.64
42771;BME280;28426;42.872;25.314;2023-04-06T11:08:50;96422.94;;;9.43;49.06
42771;BME280;28426;42.872;25.314;2023-04-06T11:11:26;96420.91;;;9.45;47.08
42771;BME280;28426;42.872;25.314;2023-04-06T11:13:58;96416.22;;;9.54;47.96
42771;BME280;28426;42.872;25.314;2023-04-06T11:16:30;96408.28;;;9.61;47.74
42771;BME280;28426;42.872;25.314;2023-04-06T11:19:03;96418.59;;;9.71;47.81
42771;BME280;28426;42.872;25.314;2023-04-06T11:21:35;96418.25;;;9.80;48.11
42771;BME280;28426;42.872;25.314;2023-04-06T11:24:11;96414.63;;;9.95;48.48
42771;BME280;28426;42.872;25.314;2023-04-06T11:26:47;96414.31;;;10.18;49.03
42771;BME280;28426;42.872;25.314;2023-04-06T11:29:19;96407.22;;;10.46;47.41
42771;BME280;28426;42.872;25.314;2023-04-06T11:31:52;96413.22;;;10.62;46.69
42771;BME280;28426;42.872;25.314;2023-04-06T11:34:25;96404.22;;;10.76;47.50
42771;BME280;28426;42.872;25.314;2023-04-06T11:36:57;96399.28;;;11.00;48.38
42771;BME280;28426;42.872;25.314;2023-04-06T11:39:30;96408.34;;;11.19;46.96
42771;BME280;28426;42.872;25.314;2023-04-06T11:42:03;96403.81;;;11.20;45.16
42771;BME280;28426;42.872;25.314;2023-04-06T11:44:37;96404.63;;;11.14;44.54
42771;BME280;28426;42.872;25.314;2023-04-06T11:47:10;96405.47;;;11.07;45.23
42771;BME280;28426;42.872;25.314;2023-04-06T11:49:43;96398.88;;;11.03;45.88
42771;BME280;28426;42.872;25.314;2023-04-06T11:52:16;96391.47;;;11.12;46.05
42771;BME280;28426;42.872;25.314;2023-04-06T11:54:48;96389.66;;;11.12;42.59
42771;BME280;28426;42.872;25.314;2023-04-06T11:57:23;96392.53;;;11.04;43.48
42771;BME280;28426;42.872;25.314;2023-04-06T11:59:55;96389.03;;;10.90;41.46
42771;BME280;28426;42.872;25.314;2023-04-06T12:02:26;96388.59;;;10.73;42.21
42771;BME280;28426;42.872;25.314;2023-04-06T12:05:00;96382.44;;;10.52;41.35
42771;BME280;28426;42.872;25.314;2023-04-06T12:07:31;96393.44;;;10.36;42.79
42771;BME280;28426;42.872;25.314;2023-04-06T12:10:03;96389.47;;;10.18;41.92
42771;BME280;28426;42.872;25.314;2023-04-06T12:12:37;96386.38;;;10.07;42.67
42771;BME280;28426;42.872;25.314;2023-04-06T12:15:09;96392.91;;;9.98;43.09
42771;BME280;28426;42.872;25.314;2023-04-06T12:17:40;96392.41;;;9.81;41.88
42771;BME280;28426;42.872;25.314;2023-04-06T12:20:12;96389.94;;;9.73;42.35
42771;BME280;28426;42.872;25.314;2023-04-06T12:22:52;96385.53;;;9.58;42.66
42771;BME280;28426;42.872;25.314;2023-04-06T12:25:23;96398.81;;;9.51;43.07
42771;BME280;28426;42.872;25.314;2023-04-06T12:27:57;96365.03;;;9.23;43.22
42771;BME280;28426;42.872;25.314;2023-04-06T12:30:28;96389.75;;;9.39;44.43
42771;BME280;28426;42.872;25.314;2023-04-06T12:32:59;96390.13;;;9.36;44.27
42771;BME280;28426;42.872;25.314;2023-04-06T12:35:33;96388.66;;;9.33;44.51
42771;BME280;28426;42.872;25.314;2023-04-06T12:38:04;96377.34;;;9.24;44.13
42771;BME280;28426;42.872;25.314;2023-04-06T12:40:37;96397.88;;;9.31;43.06
42771;BME280;28426;42.872;25.314;2023-04-06T12:43:11;96394.97;;;9.25;43.42
42771;BME280;28426;42.872;25.314;2023-04-06T12:45:42;96397.97;;;9.15;43.25
42771;BME280;28426;42.872;25.314;2023-04-06T12:48:13;96395.88;;;9.11;43.95
42771;BME280;28426;42.872;25.314;2023-04-06T12:50:53;96400.19;;;9.12;44.57
42771;BME280;28426;42.872;25.314;2023-04-06T12:53:24;96392.22;;;9.12;44.27
42771;BME280;28426;42.872;25.314;2023-04-06T12:55:56;96383.78;;;9.08;44.55
42771;BME280;28426;42.872;25.314;2023-04-06T12:58:29;96388.34;;;9.14;44.66
42771;BME280;28426;42.872;25.314;2023-04-06T13:01:06;96389.16;;;9.15;44.57
42771;BME280;28426;42.872;25.314;2023-04-06T13:03:37;96391.00;;;9.14;44.45
42771;BME280;28426;42.872;25.314;2023-04-06T13:06:08;96390.38;;;9.12;43.68
42771;BME280;28426;42.872;25.314;2023-04-06T13:08:40;96372.69;;;9.05;44.32
42771;BME280;28426;42.872;25.314;2023-04-06T13:11:11;96380.50;;;9.06;44.67
42771;BME280;28426;42.872;25.314;2023-04-06T13:13:45;96374.75;;;9.02;44.75
42771;BME280;28426;42.872;25.314;2023-04-06T13:16:16;96375.13;;;8.99;44.62
42771;BME280;28426;42.872;25.314;2023-04-06T13:18:48;96369.38;;;8.96;44.88
42771;BME280;28426;42.872;25.314;2023-04-06T13:21:19;96374.88;;;8.94;45.10
42771;BME280;28426;42.872;25.314;2023-04-06T13:23:50;96370.56;;;8.93;44.61
42771;BME280;28426;42.872;25.314;2023-04-06T13:26:21;96378.75;;;8.92;44.74
42771;BME280;28426;42.872;25.314;2023-04-06T13:28:55;96375.44;;;8.89;44.67
42771;BME280;28426;42.872;25.314;2023-04-06T13:31:26;96379.13;;;8.88;44.84